PORTS® Data Listing: 8519483 Bergen Point West Reach, NY

CO-OPS RAW PORTS DATA

************************      PRELIMINARY DATA      ************************** 

     THIS RAW DATA HAS NOT BEEN SUBJECT TO THE NATIONAL OCEAN SERVICE'S        
     QUALITY CONTROL OR QUALITY ASSURANCE PROCEDURES AND DOES NOT MEET         
     THE CRITERIA AND STANDARDS OF OFFICIAL NATIONAL OCEAN SERVICE             
     DATA.  IT IS RELEASED FOR LIMITED PUBLIC USE AS PRELIMINARY DATA TO       
     BE USED ONLY WITH APPROPRIATE CAUTION.                                    

************************      PRELIMINARY DATA      ************************** 


       CD   -   Calendar date
       T    -   Time
       TZ   -   Timezone
       PW   -   Predicted water level (feet above MLLW)
       OW   -   Observed water level (feet above MLLW)
       WS   -   Wind speed (knots)
       WD   -   Wind direction (degrees true)
       WG   -   Wind gust (knots)
       AT   -   Air temperature (degrees farenheit)
       WT   -   Water temperature (degrees farenheit)
       AP   -   Air pressure (millibars)
       SA   -   Salinty (PSU - Practical Salinity Units)
       SG   -   Specific gravity
       RH   -   Relative humidity
       AG   -   Air gap (feet)
       VI   -   Visibility (nautical miles)

       ** NOTE **
       A variable that has its data fields filled with "9"s, indicates that
       data was not collected for that sample period.
       **********


STATION NAME: Bergen Point West Reach (8519483)
****************************************************************************************************
    CD       T    TZ    PW     OW    WS   WD   WG    AT    WT    AP    SA    SG     RH    AG   VI
****************************************************************************************************
2019/12/12 02:24 EST   -0.14  -0.62 -999 -999 -999  30.4  43.5 1035.8 -9.9 -9.999 -99.9 -99.99 -9.99
2019/12/12 02:30 EST   -0.10  -0.57 -999 -999 -999  30.4  43.5 1035.9 -9.9 -9.999 -99.9 -99.99 -9.99
2019/12/12 02:36 EST   -0.05  -0.53 -999 -999 -999  30.6  43.5 1036.1 -9.9 -9.999 -99.9 -99.99 -9.99
2019/12/12 02:42 EST    0.01  -0.47 -999 -999 -999  30.7  43.5 1036.3 -9.9 -9.999 -99.9 -99.99 -9.99
2019/12/12 02:48 EST    0.07  -0.41 -999 -999 -999  30.6  43.5 1036.5 -9.9 -9.999 -99.9 -99.99 -9.99
2019/12/12 02:54 EST    0.15  -0.34 -999 -999 -999  30.6  43.5 1036.7 -9.9 -9.999 -99.9 -99.99 -9.99
2019/12/12 03:00 EST    0.23  -0.26 -999 -999 -999  30.4  43.5 1036.8 -9.9 -9.999 -99.9 -99.99 -9.99
2019/12/12 03:06 EST    0.32  -0.17 -999 -999 -999  30.4  43.3 1036.8 -9.9 -9.999 -99.9 -99.99 -9.99
2019/12/12 03:12 EST    0.43  -0.06 -999 -999 -999  30.6  43.3 1036.9 -9.9 -9.999 -99.9 -99.99 -9.99
2019/12/12 03:18 EST    0.54   0.05 -999 -999 -999  30.4  43.3 1036.9 -9.9 -9.999 -99.9 -99.99 -9.99
2019/12/12 03:24 EST    0.66   0.18 -999 -999 -999  30.2  43.3 1036.9 -9.9 -9.999 -99.9 -99.99 -9.99
2019/12/12 03:30 EST    0.79   0.32 -999 -999 -999  30.0  43.5 1037.0 -9.9 -9.999 -99.9 -99.99 -9.99
2019/12/12 03:36 EST    0.92   0.48 -999 -999 -999  30.2  43.5 1037.1 -9.9 -9.999 -99.9 -99.99 -9.99
2019/12/12 03:42 EST    1.07   0.65 -999 -999 -999  30.2  43.5 1037.2 -9.9 -9.999 -99.9 -99.99 -9.99
2019/12/12 03:48 EST    1.22   0.81 -999 -999 -999  30.2  43.5 1037.3 -9.9 -9.999 -99.9 -99.99 -9.99
2019/12/12 03:54 EST    1.37   0.96 -999 -999 -999  30.2  43.5 1037.5 -9.9 -9.999 -99.9 -99.99 -9.99
2019/12/12 04:00 EST    1.54   1.14 -999 -999 -999  29.8  43.5 1037.8 -9.9 -9.999 -99.9 -99.99 -9.99
2019/12/12 04:06 EST    1.70   1.32 -999 -999 -999  29.7  43.5 1037.8 -9.9 -9.999 -99.9 -99.99 -9.99
2019/12/12 04:12 EST    1.88   1.52 -999 -999 -999  29.8  43.5 1037.8 -9.9 -9.999 -99.9 -99.99 -9.99
2019/12/12 04:18 EST    2.05   1.72 -999 -999 -999  29.7  43.5 1037.7 -9.9 -9.999 -99.9 -99.99 -9.99
2019/12/12 04:24 EST    2.23   1.90 -999 -999 -999  29.7  43.3 1037.9 -9.9 -9.999 -99.9 -99.99 -9.99
2019/12/12 04:30 EST    2.41   2.09 -999 -999 -999  29.7  43.3 1037.8 -9.9 -9.999 -99.9 -99.99 -9.99
2019/12/12 04:36 EST    2.59   2.26 -999 -999 -999  29.7  43.3 1038.0 -9.9 -9.999 -99.9 -99.99 -9.99
2019/12/12 04:42 EST    2.77   2.45 -999 -999 -999  29.8  43.5 1038.2 -9.9 -9.999 -99.9 -99.99 -9.99
2019/12/12 04:48 EST    2.95   2.64 -999 -999 -999  29.8  43.9 1038.2 -9.9 -9.999 -99.9 -99.99 -9.99
2019/12/12 04:54 EST    3.13   2.82 -999 -999 -999  29.7  43.9 1038.2 -9.9 -9.999 -99.9 -99.99 -9.99
2019/12/12 05:00 EST    3.31   2.99 -999 -999 -999  29.7  43.9 1038.2 -9.9 -9.999 -99.9 -99.99 -9.99
2019/12/12 05:06 EST    3.49   3.16 -999 -999 -999  29.7  44.1 1038.3 -9.9 -9.999 -99.9 -99.99 -9.99
2019/12/12 05:12 EST    3.66   3.36 -999 -999 -999  29.7  44.1 1038.4 -9.9 -9.999 -99.9 -99.99 -9.99
2019/12/12 05:18 EST    3.83   3.55 -999 -999 -999  29.3  44.2 1038.4 -9.9 -9.999 -99.9 -99.99 -9.99
2019/12/12 05:24 EST    3.99   3.68 -999 -999 -999  29.7  44.2 1038.4 -9.9 -9.999 -99.9 -99.99 -9.99
2019/12/12 05:30 EST    4.15   3.86 -999 -999 -999  29.8  44.4 1038.7 -9.9 -9.999 -99.9 -99.99 -9.99
2019/12/12 05:36 EST    4.30   3.99 -999 -999 -999  29.8  44.4 1038.7 -9.9 -9.999 -99.9 -99.99 -9.99
2019/12/12 05:42 EST    4.45   4.16 -999 -999 -999  29.7  44.4 1038.9 -9.9 -9.999 -99.9 -99.99 -9.99
2019/12/12 05:48 EST    4.58   4.30 -999 -999 -999  29.3  44.4 1039.0 -9.9 -9.999 -99.9 -99.99 -9.99
2019/12/12 05:54 EST    4.72   4.40 -999 -999 -999  29.5  44.4 1039.0 -9.9 -9.999 -99.9 -99.99 -9.99
2019/12/12 06:00 EST    4.84   4.52 -999 -999 -999  29.1  44.6 1039.0 -9.9 -9.999 -99.9 -99.99 -9.99
2019/12/12 06:06 EST    4.96   4.61 -999 -999 -999  28.9  44.6 1039.1 -9.9 -9.999 -99.9 -99.99 -9.99
2019/12/12 06:12 EST    5.07   4.71 -999 -999 -999  29.5  44.8 1039.1 -9.9 -9.999 -99.9 -99.99 -9.99
2019/12/12 06:18 EST    5.17   4.79 -999 -999 -999  29.1  44.8 1039.3 -9.9 -9.999 -99.9 -99.99 -9.99
2019/12/12 06:24 EST    5.27   4.86 -999 -999 -999  28.9  44.8 1039.5 -9.9 -9.999 -99.9 -99.99 -9.99
2019/12/12 06:30 EST    5.35   4.91 -999 -999 -999  29.3  44.8 1039.5 -9.9 -9.999 -99.9 -99.99 -9.99
2019/12/12 06:36 EST    5.43   4.96 -999 -999 -999  29.1  44.6 1039.7 -9.9 -9.999 -99.9 -99.99 -9.99
2019/12/12 06:42 EST    5.51   4.98 -999 -999 -999  29.1  44.4 1039.9 -9.9 -9.999 -99.9 -99.99 -9.99
2019/12/12 06:48 EST    5.57   4.99 -999 -999 -999  28.6  44.2 1040.0 -9.9 -9.999 -99.9 -99.99 -9.99
2019/12/12 06:54 EST    5.63   5.01 -999 -999 -999  28.2  44.4 1040.0 -9.9 -9.999 -99.9 -99.99 -9.99
2019/12/12 07:00 EST    5.68   5.04 -999 -999 -999  28.4  44.1 1040.2 -9.9 -9.999 -99.9 -99.99 -9.99
2019/12/12 07:06 EST    5.72   5.05 -999 -999 -999  28.4  44.2 1040.3 -9.9 -9.999 -99.9 -99.99 -9.99
2019/12/12 07:12 EST    5.76   5.03 -999 -999 -999  28.4  44.4 1040.4 -9.9 -9.999 -99.9 -99.99 -9.99
2019/12/12 07:18 EST    5.79   5.01 -999 -999 -999  28.4  44.4 1040.4 -9.9 -9.999 -99.9 -99.99 -9.99
2019/12/12 07:24 EST    5.81   5.05 -999 -999 -999  28.8  44.4 1040.5 -9.9 -9.999 -99.9 -99.99 -9.99
2019/12/12 07:30 EST    5.83   5.05 -999 -999 -999  28.9  44.4 1040.6 -9.9 -9.999 -99.9 -99.99 -9.99
2019/12/12 07:36 EST    5.84   5.02 -999 -999 -999  28.8  44.4 1040.5 -9.9 -9.999 -99.9 -99.99 -9.99
2019/12/12 07:42 EST    5.85   5.00 -999 -999 -999  28.4  44.4 1040.5 -9.9 -9.999 -99.9 -99.99 -9.99
2019/12/12 07:48 EST    5.85   4.99 -999 -999 -999  28.4  44.4 1040.4 -9.9 -9.999 -99.9 -99.99 -9.99
2019/12/12 07:54 EST    5.84   4.95 -999 -999 -999  28.2  44.4 1040.5 -9.9 -9.999 -99.9 -99.99 -9.99
2019/12/12 08:00 EST    5.83   4.94 -999 -999 -999  28.4  44.4 1040.5 -9.9 -9.999 -99.9 -99.99 -9.99
2019/12/12 08:06 EST    5.81   4.93 -999 -999 -999  27.9  44.4 1040.5 -9.9 -9.999 -99.9 -99.99 -9.99
2019/12/12 08:12 EST    5.79   4.93 -999 -999 -999  27.7  44.4 1040.5 -9.9 -9.999 -99.9 -99.99 -9.99
2019/12/12 08:18 EST    5.76   4.90 -999 -999 -999  27.9  44.4 1040.7 -9.9 -9.999 -99.9 -99.99 -9.99
2019/12/12 08:24 EST    5.72   4.88 -999 -999 -999  28.2  44.6 1040.7 -9.9 -9.999 -99.9 -99.99 -9.99
2019/12/12 08:30 EST    5.68   4.86 -999 -999 -999  28.0  44.6 1040.6 -9.9 -9.999 -99.9 -99.99 -9.99
2019/12/12 08:36 EST    5.64   4.85 -999 -999 -999  28.2  44.6 1040.7 -9.9 -9.999 -99.9 -99.99 -9.99
2019/12/12 08:42 EST    5.58   4.81 -999 -999 -999  28.4  44.4 1040.7 -9.9 -9.999 -99.9 -99.99 -9.99
2019/12/12 08:48 EST    5.53   4.78 -999 -999 -999  28.4  44.4 1040.6 -9.9 -9.999 -99.9 -99.99 -9.99
2019/12/12 08:54 EST    5.46   4.74 -999 -999 -999  28.6  44.4 1040.6 -9.9 -9.999 -99.9 -99.99 -9.99
2019/12/12 09:00 EST    5.40   4.72 -999 -999 -999  28.9  44.4 1040.6 -9.9 -9.999 -99.9 -99.99 -9.99
2019/12/12 09:06 EST    5.32   4.68 -999 -999 -999  28.9  44.4 1040.7 -9.9 -9.999 -99.9 -99.99 -9.99
2019/12/12 09:12 EST    5.24   4.65 -999 -999 -999  28.6  44.4 1041.0 -9.9 -9.999 -99.9 -99.99 -9.99
2019/12/12 09:18 EST    5.16   4.60 -999 -999 -999  28.4  44.4 1041.1 -9.9 -9.999 -99.9 -99.99 -9.99
2019/12/12 09:24 EST    5.07   4.53 -999 -999 -999  28.6  44.4 1041.1 -9.9 -9.999 -99.9 -99.99 -9.99
2019/12/12 09:30 EST    4.98   4.46 -999 -999 -999  28.9  44.4 1041.3 -9.9 -9.999 -99.9 -99.99 -9.99
2019/12/12 09:36 EST    4.88   4.38 -999 -999 -999  29.3  44.2 1041.3 -9.9 -9.999 -99.9 -99.99 -9.99
2019/12/12 09:42 EST    4.77   4.30 -999 -999 -999  29.1  44.2 1041.3 -9.9 -9.999 -99.9 -99.99 -9.99
2019/12/12 09:48 EST    4.67   4.22 -999 -999 -999  29.1  44.2 1041.6 -9.9 -9.999 -99.9 -99.99 -9.99
2019/12/12 09:54 EST    4.55   4.10 -999 -999 -999  29.3  44.2 1041.5 -9.9 -9.999 -99.9 -99.99 -9.99
2019/12/12 10:00 EST    4.44   3.98 -999 -999 -999  29.5  44.1 1041.5 -9.9 -9.999 -99.9 -99.99 -9.99
2019/12/12 10:06 EST    4.32   3.88 -999 -999 -999  29.5  44.1 1041.4 -9.9 -9.999 -99.9 -99.99 -9.99
2019/12/12 10:12 EST    4.19   3.79 -999 -999 -999  29.3  44.1 1041.3 -9.9 -9.999 -99.9 -99.99 -9.99
2019/12/12 10:18 EST    4.07   3.63 -999 -999 -999  29.1  43.9 1041.2 -9.9 -9.999 -99.9 -99.99 -9.99
2019/12/12 10:24 EST    3.94   3.51 -999 -999 -999  29.3  43.9 1041.4 -9.9 -9.999 -99.9 -99.99 -9.99
2019/12/12 10:30 EST    3.81   3.37 -999 -999 -999  30.2  43.9 1041.4 -9.9 -9.999 -99.9 -99.99 -9.99
2019/12/12 10:36 EST    3.68   3.20 -999 -999 -999  30.2  43.9 1041.4 -9.9 -9.999 -99.9 -99.99 -9.99
2019/12/12 10:42 EST    3.54   3.11 -999 -999 -999  30.0  43.9 1041.4 -9.9 -9.999 -99.9 -99.99 -9.99
2019/12/12 10:48 EST    3.41   2.98 -999 -999 -999  30.0  43.7 1041.4 -9.9 -9.999 -99.9 -99.99 -9.99
2019/12/12 10:54 EST    3.27   2.82 -999 -999 -999  30.4  43.7 1041.4 -9.9 -9.999 -99.9 -99.99 -9.99
2019/12/12 11:00 EST    3.13   2.70 -999 -999 -999  30.4  43.7 1041.4 -9.9 -9.999 -99.9 -99.99 -9.99
2019/12/12 11:06 EST    3.00   2.55 -999 -999 -999  30.7  43.7 1041.2 -9.9 -9.999 -99.9 -99.99 -9.99
2019/12/12 11:12 EST    2.86   2.44 -999 -999 -999  30.9  43.7 1041.2 -9.9 -9.999 -99.9 -99.99 -9.99
2019/12/12 11:18 EST    2.72   2.30 -999 -999 -999  30.9  43.7 1041.1 -9.9 -9.999 -99.9 -99.99 -9.99
2019/12/12 11:24 EST    2.59   2.16 -999 -999 -999  30.7  43.7 1040.9 -9.9 -9.999 -99.9 -99.99 -9.99
2019/12/12 11:30 EST    2.45   2.03 -999 -999 -999  31.3  43.7 1040.6 -9.9 -9.999 -99.9 -99.99 -9.99
2019/12/12 11:36 EST    2.32   1.91 -999 -999 -999  31.1  43.5 1040.4 -9.9 -9.999 -99.9 -99.99 -9.99
2019/12/12 11:42 EST    2.19   1.77 -999 -999 -999  31.5  43.5 1040.4 -9.9 -9.999 -99.9 -99.99 -9.99
2019/12/12 11:48 EST    2.06   1.66 -999 -999 -999  31.8  43.5 1040.3 -9.9 -9.999 -99.9 -99.99 -9.99
2019/12/12 11:54 EST    1.93   1.54 -999 -999 -999  31.6  43.5 1040.3 -9.9 -9.999 -99.9 -99.99 -9.99
2019/12/12 12:00 EST    1.81   1.44 -999 -999 -999  31.8  43.5 1040.3 -9.9 -9.999 -99.9 -99.99 -9.99
2019/12/12 12:06 EST    1.69   1.33 -999 -999 -999  31.8  43.5 1040.3 -9.9 -9.999 -99.9 -99.99 -9.99
2019/12/12 12:12 EST    1.57   1.25 -999 -999 -999  32.0  43.5 1040.1 -9.9 -9.999 -99.9 -99.99 -9.99
2019/12/12 12:18 EST    1.45   1.17 -999 -999 -999  31.8  43.5 1040.1 -9.9 -9.999 -99.9 -99.99 -9.99
2019/12/12 12:24 EST    1.33   1.09 -999 -999 -999  32.2  43.5 1040.1 -9.9 -9.999 -99.9 -99.99 -9.99
2019/12/12 12:30 EST    1.22   0.97 -999 -999 -999  32.2  43.5 1040.1 -9.9 -9.999 -99.9 -99.99 -9.99
2019/12/12 12:36 EST    1.11   0.88 -999 -999 -999  32.5  43.5 1040.0 -9.9 -9.999 -99.9 -99.99 -9.99
2019/12/12 12:42 EST    1.00   0.76 -999 -999 -999  32.4  43.5 1040.1 -9.9 -9.999 -99.9 -99.99 -9.99
2019/12/12 12:48 EST    0.89   0.68 -999 -999 -999  33.3  43.5 1040.1 -9.9 -9.999 -99.9 -99.99 -9.99
2019/12/12 12:54 EST    0.79   0.61 -999 -999 -999  32.9  43.5 1040.1 -9.9 -9.999 -99.9 -99.99 -9.99
2019/12/12 13:00 EST    0.69   0.49 -999 -999 -999  32.9  43.5 1040.2 -9.9 -9.999 -99.9 -99.99 -9.99
2019/12/12 13:06 EST    0.59   0.42 -999 -999 -999  33.1  43.5 1040.1 -9.9 -9.999 -99.9 -99.99 -9.99
2019/12/12 13:12 EST    0.49   0.34 -999 -999 -999  33.1  43.5 1040.0 -9.9 -9.999 -99.9 -99.99 -9.99
2019/12/12 13:18 EST    0.40   0.25 -999 -999 -999  33.4  43.5 1040.1 -9.9 -9.999 -99.9 -99.99 -9.99
2019/12/12 13:24 EST    0.31   0.18 -999 -999 -999  33.8  43.5 1040.0 -9.9 -9.999 -99.9 -99.99 -9.99
2019/12/12 13:30 EST    0.23   0.08 -999 -999 -999  33.3  43.5 1039.9 -9.9 -9.999 -99.9 -99.99 -9.99
2019/12/12 13:36 EST    0.15  -0.02 -999 -999 -999  34.3  43.7 1039.8 -9.9 -9.999 -99.9 -99.99 -9.99
2019/12/12 13:42 EST    0.07  -0.08 -999 -999 -999  34.5  43.7 1039.8 -9.9 -9.999 -99.9 -99.99 -9.99
2019/12/12 13:48 EST   -0.00  -0.16 -999 -999 -999  34.9  43.7 1039.7 -9.9 -9.999 -99.9 -99.99 -9.99
2019/12/12 13:54 EST   -0.07  -0.26 -999 -999 -999  35.8  43.7 1039.6 -9.9 -9.999 -99.9 -99.99 -9.99
2019/12/12 14:00 EST   -0.14  -0.35 -999 -999 -999  34.2  43.7 1039.6 -9.9 -9.999 -99.9 -99.99 -9.99
2019/12/12 14:06 EST   -0.20  -0.42 -999 -999 -999  35.2  43.7 1039.5 -9.9 -9.999 -99.9 -99.99 -9.99
2019/12/12 14:12 EST   -0.25  -0.47 -999 -999 -999  36.5  43.7 1039.5 -9.9 -9.999 -99.9 -99.99 -9.99
2019/12/12 14:18 EST   -0.29  -0.54 -999 -999 -999  35.2  43.7 1039.4 -9.9 -9.999 -99.9 -99.99 -9.99
2019/12/12 14:24 EST   -0.33  -0.59 -999 -999 -999  36.0  43.7 1039.5 -9.9 -9.999 -99.9 -99.99 -9.99
2019/12/12 14:30 EST   -0.37  -0.63 -999 -999 -999  35.4  43.7 1039.5 -9.9 -9.999 -99.9 -99.99 -9.99
2019/12/12 14:36 EST   -0.39  -0.65 -999 -999 -999  36.0  43.7 1039.5 -9.9 -9.999 -99.9 -99.99 -9.99
2019/12/12 14:42 EST   -0.41  -0.66 -999 -999 -999  36.5  43.7 1039.5 -9.9 -9.999 -99.9 -99.99 -9.99
2019/12/12 14:48 EST   -0.42  -0.67 -999 -999 -999  37.0  43.7 1039.5 -9.9 -9.999 -99.9 -99.99 -9.99
2019/12/12 14:54 EST   -0.42  -0.68 -999 -999 -999  36.5  43.9 1039.5 -9.9 -9.999 -99.9 -99.99 -9.99
2019/12/12 15:00 EST   -0.41  -0.67 -999 -999 -999  35.1  43.9 1039.4 -9.9 -9.999 -99.9 -99.99 -9.99
2019/12/12 15:06 EST   -0.39  -0.65 -999 -999 -999  35.2  43.9 1039.4 -9.9 -9.999 -99.9 -99.99 -9.99
2019/12/12 15:12 EST   -0.37  -0.61 -999 -999 -999  35.8  43.9 1039.4 -9.9 -9.999 -99.9 -99.99 -9.99
2019/12/12 15:18 EST   -0.33  -0.55 -999 -999 -999  36.0  43.9 1039.4 -9.9 -9.999 -99.9 -99.99 -9.99
2019/12/12 15:24 EST   -0.28  -0.49 -999 -999 -999  35.4  43.7 1039.5 -9.9 -9.999 -99.9 -99.99 -9.99
2019/12/12 15:30 EST   -0.23  -0.42 -999 -999 -999  36.3  43.7 1039.4 -9.9 -9.999 -99.9 -99.99 -9.99
2019/12/12 15:36 EST   -0.16  -0.30 -999 -999 -999  36.0  43.7 1039.3 -9.9 -9.999 -99.9 -99.99 -9.99
2019/12/12 15:42 EST   -0.09  -0.21 -999 -999 -999  35.2  43.7 1039.4 -9.9 -9.999 -99.9 -99.99 -9.99
2019/12/12 15:48 EST   -0.00  -0.09 -999 -999 -999  34.5  43.7 1039.4 -9.9 -9.999 -99.9 -99.99 -9.99
2019/12/12 15:54 EST    0.09   0.03 -999 -999 -999  34.2  43.9 1039.4 -9.9 -9.999 -99.9 -99.99 -9.99
2019/12/12 16:00 EST    0.19   0.14 -999 -999 -999  34.0  43.9 1039.4 -9.9 -9.999 -99.9 -99.99 -9.99
2019/12/12 16:06 EST    0.30   0.29 -999 -999 -999  33.6  43.9 1039.5 -9.9 -9.999 -99.9 -99.99 -9.99
2019/12/12 16:12 EST    0.42   0.44 -999 -999 -999  33.4  43.9 1039.4 -9.9 -9.999 -99.9 -99.99 -9.99
2019/12/12 16:18 EST    0.55   0.58 -999 -999 -999  33.4  43.9 1039.5 -9.9 -9.999 -99.9 -99.99 -9.99
2019/12/12 16:24 EST    0.68   0.76 -999 -999 -999  33.3  43.9 1039.6 -9.9 -9.999 -99.9 -99.99 -9.99
2019/12/12 16:30 EST    0.82   0.95 -999 -999 -999  33.1  43.9 1039.5 -9.9 -9.999 -99.9 -99.99 -9.99
2019/12/12 16:36 EST    0.97   1.12 -999 -999 -999  32.9  43.9 1039.6 -9.9 -9.999 -99.9 -99.99 -9.99
2019/12/12 16:42 EST    1.12   1.31 -999 -999 -999  33.1  43.9 1039.6 -9.9 -9.999 -99.9 -99.99 -9.99
2019/12/12 16:48 EST    1.27   1.48 -999 -999 -999  32.9  43.9 1039.6 -9.9 -9.999 -99.9 -99.99 -9.99
2019/12/12 16:54 EST    1.43   1.64 -999 -999 -999  32.9  44.1 1039.7 -9.9 -9.999 -99.9 -99.99 -9.99
2019/12/12 17:00 EST    1.59   1.82 -999 -999 -999  32.9  44.1 1039.7 -9.9 -9.999 -99.9 -99.99 -9.99
2019/12/12 17:06 EST    1.75   2.00 -999 -999 -999  32.7  44.1 1039.6 -9.9 -9.999 -99.9 -99.99 -9.99
2019/12/12 17:12 EST    1.91   2.17 -999 -999 -999  32.7  44.1 1039.6 -9.9 -9.999 -99.9 -99.99 -9.99
2019/12/12 17:18 EST    2.08   2.33 -999 -999 -999  32.7  44.1 1039.7 -9.9 -9.999 -99.9 -99.99 -9.99
2019/12/12 17:24 EST    2.24   2.53 -999 -999 -999  32.7  44.1 1039.6 -9.9 -9.999 -99.9 -99.99 -9.99
2019/12/12 17:30 EST    2.40   2.69 -999 -999 -999  32.5  44.2 1039.6 -9.9 -9.999 -99.9 -99.99 -9.99
2019/12/12 17:36 EST    2.56   2.84 -999 -999 -999  32.5  44.2 1039.7 -9.9 -9.999 -99.9 -99.99 -9.99
2019/12/12 17:42 EST    2.72   3.01 -999 -999 -999  32.5  44.2 1039.8 -9.9 -9.999 -99.9 -99.99 -9.99
2019/12/12 17:48 EST    2.87   3.16 -999 -999 -999  32.5  44.2 1039.8 -9.9 -9.999 -99.9 -99.99 -9.99
2019/12/12 17:54 EST    3.02   3.30 -999 -999 -999  32.5  44.1 1039.8 -9.9 -9.999 -99.9 -99.99 -9.99
2019/12/12 18:00 EST    3.16   3.45 -999 -999 -999  32.5  44.1 1039.7 -9.9 -9.999 -99.9 -99.99 -9.99
2019/12/12 18:06 EST    3.30   3.59 -999 -999 -999  32.2  44.1 1039.7 -9.9 -9.999 -99.9 -99.99 -9.99
2019/12/12 18:12 EST    3.43   3.73 -999 -999 -999  32.2  44.1 1039.5 -9.9 -9.999 -99.9 -99.99 -9.99
2019/12/12 18:18 EST    3.56   3.85 -999 -999 -999  32.2  44.1 1039.5 -9.9 -9.999 -99.9 -99.99 -9.99
2019/12/12 18:24 EST    3.68   3.98 -999 -999 -999  32.0  44.2 1039.4 -9.9 -9.999 -99.9 -99.99 -9.99
2019/12/12 18:30 EST    3.80   4.09 -999 -999 -999  32.0  44.2 1039.3 -9.9 -9.999 -99.9 -99.99 -9.99
2019/12/12 18:36 EST    3.91   4.19 -999 -999 -999  32.0  44.2 1039.3 -9.9 -9.999 -99.9 -99.99 -9.99
2019/12/12 18:42 EST    4.01   4.30 -999 -999 -999  31.8  44.4 1039.3 -9.9 -9.999 -99.9 -99.99 -9.99
2019/12/12 18:48 EST    4.11   4.40 -999 -999 -999  31.8  44.4 1039.2 -9.9 -9.999 -99.9 -99.99 -9.99
2019/12/12 18:54 EST    4.20   4.51 -999 -999 -999  31.8  44.4 1039.2 -9.9 -9.999 -99.9 -99.99 -9.99
2019/12/12 19:00 EST    4.28   4.59 -999 -999 -999  31.8  44.4 1039.3 -9.9 -9.999 -99.9 -99.99 -9.99
2019/12/12 19:06 EST    4.36   4.68 -999 -999 -999  31.8  44.4 1039.4 -9.9 -9.999 -99.9 -99.99 -9.99
2019/12/12 19:12 EST    4.43   4.76 -999 -999 -999  31.8  44.4 1039.4 -9.9 -9.999 -99.9 -99.99 -9.99
2019/12/12 19:18 EST    4.49   4.82 -999 -999 -999  31.8  44.4 1039.5 -9.9 -9.999 -99.9 -99.99 -9.99
2019/12/12 19:24 EST    4.55   4.89 -999 -999 -999  31.8  44.4 1039.5 -9.9 -9.999 -99.9 -99.99 -9.99
2019/12/12 19:30 EST    4.60   4.93 -999 -999 -999  32.0  44.4 1039.4 -9.9 -9.999 -99.9 -99.99 -9.99
2019/12/12 19:36 EST    4.64   4.98 -999 -999 -999  31.8  44.4 1039.4 -9.9 -9.999 -99.9 -99.99 -9.99
2019/12/12 19:42 EST    4.68   5.02 -999 -999 -999  32.0  44.4 1039.4 -9.9 -9.999 -99.9 -99.99 -9.99
2019/12/12 19:48 EST    4.71   5.05 -999 -999 -999  32.0  44.4 1039.3 -9.9 -9.999 -99.9 -99.99 -9.99
2019/12/12 19:54 EST    4.74   5.07 -999 -999 -999  32.0  44.4 1039.2 -9.9 -9.999 -99.9 -99.99 -9.99
2019/12/12 20:00 EST    4.76   5.09 -999 -999 -999  32.0  44.4 1039.2 -9.9 -9.999 -99.9 -99.99 -9.99
2019/12/12 20:06 EST    4.77   5.09 -999 -999 -999  32.2  44.4 1039.1 -9.9 -9.999 -99.9 -99.99 -9.99
2019/12/12 20:12 EST    4.78   5.08 -999 -999 -999  32.0  44.2 1039.1 -9.9 -9.999 -99.9 -99.99 -9.99
2019/12/12 20:18 EST    4.78 -99.99 -999 -999 -999 -99.9 -99.9 -999.9 -9.9 -9.999 -99.9 -99.99 -9.99
2019/12/12 20:24 EST    4.78 -99.99 -999 -999 -999 -99.9 -99.9 -999.9 -9.9 -9.999 -99.9 -99.99 -9.99
2019/12/12 20:30 EST    4.78 -99.99 -999 -999 -999 -99.9 -99.9 -999.9 -9.9 -9.999 -99.9 -99.99 -9.99
2019/12/12 20:36 EST    4.76 -99.99 -999 -999 -999 -99.9 -99.9 -999.9 -9.9 -9.999 -99.9 -99.99 -9.99
2019/12/12 20:42 EST    4.74 -99.99 -999 -999 -999 -99.9 -99.9 -999.9 -9.9 -9.999 -99.9 -99.99 -9.99
2019/12/12 20:48 EST    4.72 -99.99 -999 -999 -999 -99.9 -99.9 -999.9 -9.9 -9.999 -99.9 -99.99 -9.99
2019/12/12 20:54 EST    4.69 -99.99 -999 -999 -999 -99.9 -99.9 -999.9 -9.9 -9.999 -99.9 -99.99 -9.99
2019/12/12 21:00 EST    4.66 -99.99 -999 -999 -999 -99.9 -99.9 -999.9 -9.9 -9.999 -99.9 -99.99 -9.99
2019/12/12 21:06 EST    4.62 -99.99 -999 -999 -999 -99.9 -99.9 -999.9 -9.9 -9.999 -99.9 -99.99 -9.99
2019/12/12 21:12 EST    4.57 -99.99 -999 -999 -999 -99.9 -99.9 -999.9 -9.9 -9.999 -99.9 -99.99 -9.99
2019/12/12 21:18 EST    4.52 -99.99 -999 -999 -999 -99.9 -99.9 -999.9 -9.9 -9.999 -99.9 -99.99 -9.99
2019/12/12 21:24 EST    4.46 -99.99 -999 -999 -999 -99.9 -99.9 -999.9 -9.9 -9.999 -99.9 -99.99 -9.99
2019/12/12 21:30 EST    4.40 -99.99 -999 -999 -999 -99.9 -99.9 -999.9 -9.9 -9.999 -99.9 -99.99 -9.99
2019/12/12 21:36 EST    4.33 -99.99 -999 -999 -999 -99.9 -99.9 -999.9 -9.9 -9.999 -99.9 -99.99 -9.99
2019/12/12 21:42 EST    4.26 -99.99 -999 -999 -999 -99.9 -99.9 -999.9 -9.9 -9.999 -99.9 -99.99 -9.99
2019/12/12 21:48 EST    4.18 -99.99 -999 -999 -999 -99.9 -99.9 -999.9 -9.9 -9.999 -99.9 -99.99 -9.99
2019/12/12 21:54 EST    4.10 -99.99 -999 -999 -999 -99.9 -99.9 -999.9 -9.9 -9.999 -99.9 -99.99 -9.99
2019/12/12 22:00 EST    4.01 -99.99 -999 -999 -999 -99.9 -99.9 -999.9 -9.9 -9.999 -99.9 -99.99 -9.99
2019/12/12 22:06 EST    3.92 -99.99 -999 -999 -999 -99.9 -99.9 -999.9 -9.9 -9.999 -99.9 -99.99 -9.99
2019/12/12 22:12 EST    3.82 -99.99 -999 -999 -999 -99.9 -99.9 -999.9 -9.9 -9.999 -99.9 -99.99 -9.99
2019/12/12 22:18 EST    3.72 -99.99 -999 -999 -999 -99.9 -99.9 -999.9 -9.9 -9.999 -99.9 -99.99 -9.99
2019/12/12 22:24 EST    3.61 -99.99 -999 -999 -999 -99.9 -99.9 -999.9 -9.9 -9.999 -99.9 -99.99 -9.99
2019/12/12 22:30 EST    3.50 -99.99 -999 -999 -999 -99.9 -99.9 -999.9 -9.9 -9.999 -99.9 -99.99 -9.99
2019/12/12 22:36 EST    3.39 -99.99 -999 -999 -999 -99.9 -99.9 -999.9 -9.9 -9.999 -99.9 -99.99 -9.99
2019/12/12 22:42 EST    3.27 -99.99 -999 -999 -999 -99.9 -99.9 -999.9 -9.9 -9.999 -99.9 -99.99 -9.99
2019/12/12 22:48 EST    3.15 -99.99 -999 -999 -999 -99.9 -99.9 -999.9 -9.9 -9.999 -99.9 -99.99 -9.99
2019/12/12 22:54 EST    3.03 -99.99 -999 -999 -999 -99.9 -99.9 -999.9 -9.9 -9.999 -99.9 -99.99 -9.99
2019/12/12 23:00 EST    2.91 -99.99 -999 -999 -999 -99.9 -99.9 -999.9 -9.9 -9.999 -99.9 -99.99 -9.99
2019/12/12 23:06 EST    2.78 -99.99 -999 -999 -999 -99.9 -99.9 -999.9 -9.9 -9.999 -99.9 -99.99 -9.99
2019/12/12 23:12 EST    2.66 -99.99 -999 -999 -999 -99.9 -99.9 -999.9 -9.9 -9.999 -99.9 -99.99 -9.99
2019/12/12 23:18 EST    2.53 -99.99 -999 -999 -999 -99.9 -99.9 -999.9 -9.9 -9.999 -99.9 -99.99 -9.99
2019/12/12 23:24 EST    2.40 -99.99 -999 -999 -999 -99.9 -99.9 -999.9 -9.9 -9.999 -99.9 -99.99 -9.99
2019/12/12 23:30 EST    2.28 -99.99 -999 -999 -999 -99.9 -99.9 -999.9 -9.9 -9.999 -99.9 -99.99 -9.99
2019/12/12 23:36 EST    2.15 -99.99 -999 -999 -999 -99.9 -99.9 -999.9 -9.9 -9.999 -99.9 -99.99 -9.99
2019/12/12 23:42 EST    2.02 -99.99 -999 -999 -999 -99.9 -99.9 -999.9 -9.9 -9.999 -99.9 -99.99 -9.99
2019/12/12 23:48 EST    1.90 -99.99 -999 -999 -999 -99.9 -99.9 -999.9 -9.9 -9.999 -99.9 -99.99 -9.99
2019/12/12 23:54 EST    1.78 -99.99 -999 -999 -999 -99.9 -99.9 -999.9 -9.9 -9.999 -99.9 -99.99 -9.99
2019/12/13 00:00 EST    1.66 -99.99 -999 -999 -999 -99.9 -99.9 -999.9 -9.9 -9.999 -99.9 -99.99 -9.99
2019/12/13 00:06 EST    1.54 -99.99 -999 -999 -999 -99.9 -99.9 -999.9 -9.9 -9.999 -99.9 -99.99 -9.99
2019/12/13 00:12 EST    1.42 -99.99 -999 -999 -999 -99.9 -99.9 -999.9 -9.9 -9.999 -99.9 -99.99 -9.99
2019/12/13 00:18 EST    1.31 -99.99 -999 -999 -999 -99.9 -99.9 -999.9 -9.9 -9.999 -99.9 -99.99 -9.99
2019/12/13 00:24 EST    1.20 -99.99 -999 -999 -999 -99.9 -99.9 -999.9 -9.9 -9.999 -99.9 -99.99 -9.99
2019/12/13 00:30 EST    1.09 -99.99 -999 -999 -999 -99.9 -99.9 -999.9 -9.9 -9.999 -99.9 -99.99 -9.99
2019/12/13 00:36 EST    0.98 -99.99 -999 -999 -999 -99.9 -99.9 -999.9 -9.9 -9.999 -99.9 -99.99 -9.99
2019/12/13 00:42 EST    0.88 -99.99 -999 -999 -999 -99.9 -99.9 -999.9 -9.9 -9.999 -99.9 -99.99 -9.99
2019/12/13 00:48 EST    0.79 -99.99 -999 -999 -999 -99.9 -99.9 -999.9 -9.9 -9.999 -99.9 -99.99 -9.99
2019/12/13 00:54 EST    0.69 -99.99 -999 -999 -999 -99.9 -99.9 -999.9 -9.9 -9.999 -99.9 -99.99 -9.99
2019/12/13 01:00 EST    0.60 -99.99 -999 -999 -999 -99.9 -99.9 -999.9 -9.9 -9.999 -99.9 -99.99 -9.99
2019/12/13 01:06 EST    0.51 -99.99 -999 -999 -999 -99.9 -99.9 -999.9 -9.9 -9.999 -99.9 -99.99 -9.99
2019/12/13 01:12 EST    0.43 -99.99 -999 -999 -999 -99.9 -99.9 -999.9 -9.9 -9.999 -99.9 -99.99 -9.99
2019/12/13 01:18 EST    0.35 -99.99 -999 -999 -999 -99.9 -99.9 -999.9 -9.9 -9.999 -99.9 -99.99 -9.99
2019/12/13 01:24 EST    0.27 -99.99 -999 -999 -999 -99.9 -99.9 -999.9 -9.9 -9.999 -99.9 -99.99 -9.99
2019/12/13 01:30 EST    0.20 -99.99 -999 -999 -999 -99.9 -99.9 -999.9 -9.9 -9.999 -99.9 -99.99 -9.99
2019/12/13 01:36 EST    0.14 -99.99 -999 -999 -999 -99.9 -99.9 -999.9 -9.9 -9.999 -99.9 -99.99 -9.99
2019/12/13 01:42 EST    0.07 -99.99 -999 -999 -999 -99.9 -99.9 -999.9 -9.9 -9.999 -99.9 -99.99 -9.99
2019/12/13 01:48 EST    0.02 -99.99 -999 -999 -999 -99.9 -99.9 -999.9 -9.9 -9.999 -99.9 -99.99 -9.99
2019/12/13 01:54 EST   -0.04 -99.99 -999 -999 -999 -99.9 -99.9 -999.9 -9.9 -9.999 -99.9 -99.99 -9.99
2019/12/13 02:00 EST   -0.09 -99.99 -999 -999 -999 -99.9 -99.9 -999.9 -9.9 -9.999 -99.9 -99.99 -9.99
2019/12/13 02:06 EST   -0.13 -99.99 -999 -999 -999 -99.9 -99.9 -999.9 -9.9 -9.999 -99.9 -99.99 -9.99
2019/12/13 02:12 EST   -0.17 -99.99 -999 -999 -999 -99.9 -99.9 -999.9 -9.9 -9.999 -99.9 -99.99 -9.99
2019/12/13 02:18 EST   -0.20 -99.99 -999 -999 -999 -99.9 -99.9 -999.9 -9.9 -9.999 -99.9 -99.99 -9.99
2019/12/13 02:24 EST   -0.22 -99.99 -999 -999 -999 -99.9 -99.9 -999.9 -9.9 -9.999 -99.9 -99.99 -9.99